Time;durP1;ratioP1;P1;durP2;ratioP2;P2;SDS_P1;SDS_P2;PMS_P1;PMS_P2;Temp;Humidity;BMP_temperature;BMP_pressure;BME280_temperature;BME280_humidity;BME280_pressure;Samples;Min_cycle;Max_cycle;Signal;HPM_P1;HPM_P2
2024/01/13 00:01:58;;;;;;;23.17;10.80;;;;;;;;;;6281504;28;20055;-64
2024/01/13 00:04:59;;;;;;;21.02;10.82;;;;;;;;;;6284355;28;20510;-65
2024/01/13 00:08:00;;;;;;;23.65;10.40;;;;;;;;;;6279860;28;20550;-65
2024/01/13 00:11:01;;;;;;;23.98;11.70;;;;;;;;;;6280802;28;20496;-65
2024/01/13 00:14:02;;;;;;;25.08;10.68;;;;;;;;;;6282506;28;20041;-63
2024/01/13 00:17:03;;;;;;;24.00;10.90;;;;;;;;;;6285705;28;20476;-63
2024/01/13 00:20:04;;;;;;;21.45;11.02;;;;;;;;;;6284580;28;20052;-63
2024/01/13 00:23:05;;;;;;;21.92;11.05;;;;;;;;;;6288053;28;20083;-64
2024/01/13 00:26:06;;;;;;;18.90;9.85;;;;;;;;;;6287217;28;20044;-65
2024/01/13 00:29:08;;;;;;;17.33;9.38;;;;;;;;;;6287388;28;20472;-64
2024/01/13 00:32:09;;;;;;;17.92;9.43;;;;;;;;;;6286267;28;20102;-63
2024/01/13 00:35:11;;;;;;;20.42;10.05;;;;;;;;;;6287800;28;20440;-63
2024/01/13 00:38:11;;;;;;;20.48;9.70;;;;;;;;;;6282925;28;20064;-63
2024/01/13 00:41:12;;;;;;;19.98;10.07;;;;;;;;;;6284111;28;20876;-65
2024/01/13 00:44:13;;;;;;;20.20;9.77;;;;;;;;;;6285207;28;20412;-66
2024/01/13 00:47:14;;;;;;;20.00;10.00;;;;;;;;;;6286115;28;20075;-65
2024/01/13 00:50:15;;;;;;;19.10;9.20;;;;;;;;;;6286130;28;20052;-64
2024/01/13 00:53:15;;;;;;;20.85;10.38;;;;;;;;;;6287136;28;20086;-64
2024/01/13 00:56:16;;;;;;;20.15;10.15;;;;;;;;;;6285949;28;20052;-64
2024/01/13 00:59:17;;;;;;;18.90;10.25;;;;;;;;;;6284588;28;20064;-65
2024/01/13 01:02:17;;;;;;;20.17;9.82;;;;;;;;;;6285044;28;20574;-64
2024/01/13 01:05:18;;;;;;;21.75;10.00;;;;;;;;;;6283968;28;20052;-64
2024/01/13 01:08:19;;;;;;;20.60;10.40;;;;;;;;;;6285756;28;20063;-65
2024/01/13 01:11:20;;;;;;;20.23;10.23;;;;;;;;;;6285023;28;20507;-65
2024/01/13 01:14:21;;;;;;;20.60;10.25;;;;;;;;;;6285352;28;20051;-65
2024/01/13 01:17:21;;;;;;;23.00;10.68;;;;;;;;;;6285509;28;20049;-65
2024/01/13 01:20:22;;;;;;;25.27;11.85;;;;;;;;;;6284418;28;20076;-65
2024/01/13 01:23:24;;;;;;;24.80;12.73;;;;;;;;;;6285155;28;20083;-61
2024/01/13 01:26:25;;;;;;;26.30;11.98;;;;;;;;;;6283874;28;20045;-65
2024/01/13 01:29:27;;;;;;;23.85;12.07;;;;;;;;;;6285295;28;20043;-64
2024/01/13 01:32:27;;;;;;;26.35;13.35;;;;;;;;;;6287428;28;20040;-65
2024/01/13 01:35:28;;;;;;;25.55;12.63;;;;;;;;;;6285180;28;20047;-64
2024/01/13 01:38:29;;;;;;;24.75;12.80;;;;;;;;;;6283768;28;20503;-64
2024/01/13 01:41:30;;;;;;;26.65;11.98;;;;;;;;;;6281356;28;20049;-65
2024/01/13 01:44:31;;;;;;;28.85;14.00;;;;;;;;;;6284359;28;20407;-64
2024/01/13 01:47:32;;;;;;;25.65;12.73;;;;;;;;;;6284465;28;20056;-65
2024/01/13 01:50:34;;;;;;;21.92;12.45;;;;;;;;;;6283193;28;20048;-66
2024/01/13 01:53:36;;;;;;;24.57;12.00;;;;;;;;;;6283260;28;20075;-63
2024/01/13 01:56:38;;;;;;;25.40;12.73;;;;;;;;;;6282901;28;20044;-64
2024/01/13 01:59:40;;;;;;;20.73;11.38;;;;;;;;;;6283384;28;20056;-65
2024/01/13 02:02:41;;;;;;;21.70;11.97;;;;;;;;;;6284645;28;20447;-64
2024/01/13 02:05:42;;;;;;;21.92;11.48;;;;;;;;;;6284831;28;20351;-65
2024/01/13 02:08:43;;;;;;;25.73;12.63;;;;;;;;;;6280305;28;20045;-65
2024/01/13 02:11:44;;;;;;;26.23;12.00;;;;;;;;;;6283979;28;20403;-65
2024/01/13 02:14:45;;;;;;;23.83;11.07;;;;;;;;;;6285250;28;20122;-65
2024/01/13 02:17:46;;;;;;;22.42;11.82;;;;;;;;;;6281878;28;20480;-64
2024/01/13 02:20:47;;;;;;;22.38;10.85;;;;;;;;;;6282474;28;20056;-62
2024/01/13 02:23:47;;;;;;;21.25;12.18;;;;;;;;;;6283782;28;20056;-64
2024/01/13 02:26:48;;;;;;;22.67;11.82;;;;;;;;;;6282753;28;20044;-64
2024/01/13 02:29:48;;;;;;;22.70;10.98;;;;;;;;;;6282378;28;20463;-64
2024/01/13 02:32:49;;;;;;;20.55;11.32;;;;;;;;;;6284156;28;20048;-64
2024/01/13 02:35:50;;;;;;;21.92;11.57;;;;;;;;;;6283688;28;20051;-61
2024/01/13 02:38:51;;;;;;;24.38;10.88;;;;;;;;;;6281627;28;20080;-65
2024/01/13 02:41:51;;;;;;;20.80;11.10;;;;;;;;;;6289802;28;20038;-64
2024/01/13 02:44:52;;;;;;;19.85;10.55;;;;;;;;;;6284545;28;20115;-63
2024/01/13 02:48:00;;;;;;;18.20;10.13;;;;;;;;;;6283309;28;20047;-65
2024/01/13 02:51:02;;;;;;;19.15;9.90;;;;;;;;;;6279273;28;20936;-63
2024/01/13 02:54:02;;;;;;;17.92;9.43;;;;;;;;;;6283390;28;20087;-64
2024/01/13 02:57:03;;;;;;;17.60;9.60;;;;;;;;;;6283896;28;20049;-62
2024/01/13 03:00:05;;;;;;;16.75;9.15;;;;;;;;;;6279924;28;20113;-64
2024/01/13 03:03:06;;;;;;;19.25;9.95;;;;;;;;;;6281177;28;20095;-63
2024/01/13 03:06:09;;;;;;;19.92;9.90;;;;;;;;;;6282141;28;20175;-62
2024/01/13 03:09:11;;;;;;;20.95;9.82;;;;;;;;;;6281026;28;20079;-64
2024/01/13 03:12:11;;;;;;;17.42;8.95;;;;;;;;;;6280741;28;20051;-63
2024/01/13 03:15:12;;;;;;;15.57;8.13;;;;;;;;;;6285619;28;20044;-63
2024/01/13 03:18:13;;;;;;;16.85;8.65;;;;;;;;;;6279288;28;20403;-63
2024/01/13 03:21:14;;;;;;;17.13;8.85;;;;;;;;;;6281360;28;20249;-64
2024/01/13 03:24:14;;;;;;;15.00;7.90;;;;;;;;;;6281325;28;20056;-63
2024/01/13 03:27:15;;;;;;;17.65;8.35;;;;;;;;;;6283012;28;20044;-64
2024/01/13 03:30:16;;;;;;;17.85;8.70;;;;;;;;;;6279383;28;20048;-62
2024/01/13 03:33:17;;;;;;;14.88;8.43;;;;;;;;;;6283597;28;20087;-62
2024/01/13 03:36:18;;;;;;;15.15;7.80;;;;;;;;;;6285647;28;20479;-63
2024/01/13 03:39:19;;;;;;;12.55;6.90;;;;;;;;;;6287358;28;20052;-66
2024/01/13 03:42:19;;;;;;;12.40;6.97;;;;;;;;;;6286957;28;20048;-64
2024/01/13 03:45:20;;;;;;;13.07;7.32;;;;;;;;;;6287500;28;20555;-62
2024/01/13 03:48:20;;;;;;;12.60;6.63;;;;;;;;;;6288858;28;20052;-65
2024/01/13 03:51:22;;;;;;;12.57;6.75;;;;;;;;;;6287774;28;20483;-65
2024/01/13 03:54:23;;;;;;;12.80;7.00;;;;;;;;;;6289167;28;20566;-64
2024/01/13 03:57:24;;;;;;;12.30;7.03;;;;;;;;;;6289608;28;20384;-64
2024/01/13 04:00:24;;;;;;;12.57;7.03;;;;;;;;;;6287262;28;20792;-64
2024/01/13 04:03:25;;;;;;;12.27;7.18;;;;;;;;;;6288573;28;20052;-65
2024/01/13 04:06:26;;;;;;;14.20;7.18;;;;;;;;;;6286288;28;20113;-65
2024/01/13 04:09:27;;;;;;;14.45;7.07;;;;;;;;;;6285416;28;20044;-63
2024/01/13 04:12:28;;;;;;;13.70;7.13;;;;;;;;;;6288540;28;20056;-64
2024/01/13 04:15:29;;;;;;;14.47;7.17;;;;;;;;;;6290075;28;20055;-66
2024/01/13 04:18:29;;;;;;;14.80;7.38;;;;;;;;;;6286777;28;20044;-62
2024/01/13 04:21:30;;;;;;;14.00;7.45;;;;;;;;;;6287365;28;20700;-64
2024/01/13 04:24:31;;;;;;;14.65;7.68;;;;;;;;;;6289067;28;20055;-64
2024/01/13 04:27:32;;;;;;;11.40;6.50;;;;;;;;;;6288932;28;20559;-64
2024/01/13 04:30:33;;;;;;;13.65;7.95;;;;;;;;;;6286384;28;20056;-63
2024/01/13 04:33:34;;;;;;;12.50;7.47;;;;;;;;;;6288631;28;20052;-64
2024/01/13 04:36:35;;;;;;;12.18;6.47;;;;;;;;;;6286561;28;20467;-64
2024/01/13 04:39:36;;;;;;;14.68;7.90;;;;;;;;;;6286384;28;20052;-65
2024/01/13 04:42:37;;;;;;;13.90;7.43;;;;;;;;;;6287627;28;20056;-64
2024/01/13 04:45:37;;;;;;;14.07;7.20;;;;;;;;;;6287049;28;20063;-64
2024/01/13 04:48:39;;;;;;;13.52;7.82;;;;;;;;;;6287740;28;20055;-65
2024/01/13 04:51:40;;;;;;;14.35;7.28;;;;;;;;;;6287504;28;20040;-65
2024/01/13 04:54:41;;;;;;;13.52;7.68;;;;;;;;;;6288204;28;20048;-65
2024/01/13 04:57:42;;;;;;;14.80;7.50;;;;;;;;;;6289148;28;20052;-65
2024/01/13 05:00:42;;;;;;;15.48;8.25;;;;;;;;;;6287214;28;20044;-64
2024/01/13 05:03:43;;;;;;;14.38;6.88;;;;;;;;;;6292357;28;20044;-64
2024/01/13 05:06:44;;;;;;;14.15;7.65;;;;;;;;;;6292616;28;20072;-64
2024/01/13 05:09:45;;;;;;;12.57;7.07;;;;;;;;;;6290723;28;20044;-65
2024/01/13 05:12:46;;;;;;;18.45;10.27;;;;;;;;;;6291874;28;20059;-65
2024/01/13 05:15:46;;;;;;;12.82;7.57;;;;;;;;;;6292364;28;20059;-63
2024/01/13 05:18:47;;;;;;;15.68;9.65;;;;;;;;;;6290013;28;20451;-65
2024/01/13 05:21:48;;;;;;;13.70;9.18;;;;;;;;;;6292721;28;20049;-65
2024/01/13 05:24:48;;;;;;;11.80;6.72;;;;;;;;;;6291719;28;20060;-64
2024/01/13 05:27:49;;;;;;;13.18;6.72;;;;;;;;;;6292390;28;20392;-64
2024/01/13 05:30:50;;;;;;;12.18;6.80;;;;;;;;;;6291225;28;20062;-63
2024/01/13 05:33:51;;;;;;;13.38;7.35;;;;;;;;;;6292171;28;20044;-63
2024/01/13 05:36:51;;;;;;;12.63;7.20;;;;;;;;;;6290672;28;20773;-64
2024/01/13 05:39:52;;;;;;;13.73;7.20;;;;;;;;;;6289426;28;20059;-63
2024/01/13 05:42:53;;;;;;;12.70;7.10;;;;;;;;;;6291859;28;20208;-61
2024/01/13 05:45:53;;;;;;;12.88;7.53;;;;;;;;;;6292899;28;20113;-63
2024/01/13 05:48:54;;;;;;;13.77;7.00;;;;;;;;;;6291087;28;20044;-64
2024/01/13 05:51:55;;;;;;;13.52;6.82;;;;;;;;;;6291006;28;20049;-65
2024/01/13 05:54:56;;;;;;;14.23;7.65;;;;;;;;;;6289062;28;20048;-63
2024/01/13 05:57:57;;;;;;;11.00;6.53;;;;;;;;;;6290738;28;20057;-62
2024/01/13 06:00:58;;;;;;;13.52;6.90;;;;;;;;;;6290165;28;20471;-64
2024/01/13 06:03:59;;;;;;;13.10;7.25;;;;;;;;;;6290657;28;20045;-62
2024/01/13 06:06:59;;;;;;;13.02;6.70;;;;;;;;;;6292207;28;20052;-64
2024/01/13 06:10:00;;;;;;;12.80;6.70;;;;;;;;;;6289854;28;20037;-64
2024/01/13 06:13:01;;;;;;;14.05;7.90;;;;;;;;;;6290092;28;20044;-62
2024/01/13 06:16:03;;;;;;;12.73;6.83;;;;;;;;;;6291699;28;20052;-63
2024/01/13 06:19:05;;;;;;;11.97;6.57;;;;;;;;;;6290719;28;20316;-65
2024/01/13 06:22:06;;;;;;;11.98;6.45;;;;;;;;;;6289270;28;20102;-64
2024/01/13 06:25:06;;;;;;;12.43;6.32;;;;;;;;;;6289405;28;20511;-62
2024/01/13 06:28:07;;;;;;;12.77;6.22;;;;;;;;;;6291234;28;20063;-63
2024/01/13 06:31:08;;;;;;;10.63;5.97;;;;;;;;;;6289745;28;20048;-62
2024/01/13 06:34:09;;;;;;;13.70;6.57;;;;;;;;;;6291070;28;20044;-65
2024/01/13 06:37:10;;;;;;;13.75;7.07;;;;;;;;;;6287198;28;20135;-61
2024/01/13 06:40:12;;;;;;;13.98;6.72;;;;;;;;;;6289121;28;20166;-63
2024/01/13 06:43:13;;;;;;;12.37;6.67;;;;;;;;;;6291031;28;20048;-65
2024/01/13 06:46:14;;;;;;;13.25;6.60;;;;;;;;;;6289233;28;20044;-64
2024/01/13 06:49:15;;;;;;;13.15;6.45;;;;;;;;;;6289441;28;20112;-64
2024/01/13 06:52:16;;;;;;;13.00;6.88;;;;;;;;;;6289665;28;20040;-61
2024/01/13 06:55:16;;;;;;;12.07;6.78;;;;;;;;;;6290727;28;20059;-64
2024/01/13 06:58:18;;;;;;;14.35;7.07;;;;;;;;;;6288709;28;20063;-63
2024/01/13 07:01:18;;;;;;;12.10;6.78;;;;;;;;;;6288679;28;20048;-63
2024/01/13 07:04:19;;;;;;;15.32;6.75;;;;;;;;;;6288246;28;20036;-64
2024/01/13 07:07:19;;;;;;;16.55;7.53;;;;;;;;;;6290260;28;20079;-63
2024/01/13 07:10:20;;;;;;;14.50;6.68;;;;;;;;;;6286635;28;20056;-65
2024/01/13 07:13:21;;;;;;;13.10;7.13;;;;;;;;;;6288703;28;20059;-62
2024/01/13 07:16:22;;;;;;;13.48;6.93;;;;;;;;;;6285211;28;20490;-64
2024/01/13 07:19:22;;;;;;;13.15;6.22;;;;;;;;;;6289772;28;20075;-65
2024/01/13 07:22:23;;;;;;;12.15;6.30;;;;;;;;;;6289357;28;20055;-62
2024/01/13 07:25:25;;;;;;;15.27;6.88;;;;;;;;;;6287671;28;20472;-64
2024/01/13 07:28:26;;;;;;;11.57;6.60;;;;;;;;;;6288388;28;20048;-65
2024/01/13 07:31:26;;;;;;;13.43;6.65;;;;;;;;;;6287971;28;20063;-65
2024/01/13 07:34:27;;;;;;;15.50;8.55;;;;;;;;;;6287978;28;20052;-61
2024/01/13 07:37:28;;;;;;;15.55;8.48;;;;;;;;;;6286685;28;20048;-63
2024/01/13 07:40:29;;;;;;;14.68;8.15;;;;;;;;;;6287239;28;20506;-64
2024/01/13 07:43:29;;;;;;;14.25;8.55;;;;;;;;;;6287273;28;20037;-65
2024/01/13 07:46:30;;;;;;;15.07;8.55;;;;;;;;;;6288362;28;20037;-62
2024/01/13 07:49:31;;;;;;;16.65;8.93;;;;;;;;;;6287686;28;20432;-63
2024/01/13 07:52:31;;;;;;;17.63;8.18;;;;;;;;;;6288853;28;20044;-63
2024/01/13 07:55:32;;;;;;;18.60;9.52;;;;;;;;;;6289440;28;20043;-64
2024/01/13 07:58:34;;;;;;;18.23;9.20;;;;;;;;;;6286689;28;20151;-62
2024/01/13 08:01:35;;;;;;;18.27;8.67;;;;;;;;;;6287709;28;20083;-61
2024/01/13 08:04:35;;;;;;;20.17;9.70;;;;;;;;;;6287840;28;20434;-61
2024/01/13 08:07:36;;;;;;;14.27;8.70;;;;;;;;;;6288601;28;20056;-60
2024/01/13 08:10:38;;;;;;;16.17;8.82;;;;;;;;;;6287010;28;20403;-67
2024/01/13 08:13:38;;;;;;;18.30;9.20;;;;;;;;;;6290950;28;20423;-67
2024/01/13 08:16:39;;;;;;;18.60;10.27;;;;;;;;;;6290459;28;20049;-64
2024/01/13 08:19:40;;;;;;;16.45;8.55;;;;;;;;;;6289490;28;20117;-64
2024/01/13 08:22:40;;;;;;;16.88;8.70;;;;;;;;;;6290882;28;20052;-66
2024/01/13 08:25:41;;;;;;;16.88;8.65;;;;;;;;;;6289780;28;20530;-61
2024/01/13 08:28:42;;;;;;;15.85;9.00;;;;;;;;;;6289581;28;20098;-65
2024/01/13 08:31:44;;;;;;;15.52;8.55;;;;;;;;;;6289438;28;20070;-70
2024/01/13 08:34:45;;;;;;;14.35;8.23;;;;;;;;;;6290040;28;20400;-67
2024/01/13 08:37:47;;;;;;;16.70;8.98;;;;;;;;;;6294030;28;20048;-69
2024/01/13 08:40:47;;;;;;;15.43;7.90;;;;;;;;;;6292555;28;20476;-73
2024/01/13 08:43:48;;;;;;;15.05;7.75;;;;;;;;;;6294858;28;20049;-70
2024/01/13 08:46:49;;;;;;;13.35;7.22;;;;;;;;;;6294425;28;20143;-73
2024/01/13 08:49:50;;;;;;;13.82;7.03;;;;;;;;;;6293167;28;20530;-64
2024/01/13 08:52:54;;;;;;;16.17;7.30;;;;;;;;;;6294724;28;20044;-72
2024/01/13 08:55:55;;;;;;;12.68;6.97;;;;;;;;;;6294417;28;20049;-73
2024/01/13 08:58:56;;;;;;;14.63;7.13;;;;;;;;;;6292340;28;20055;-74
2024/01/13 09:01:57;;;;;;;11.50;6.03;;;;;;;;;;6304496;28;20063;-71
2024/01/13 09:04:57;;;;;;;13.32;6.65;;;;;;;;;;6316997;28;20056;-72
2024/01/13 09:07:59;;;;;;;11.20;6.05;;;;;;;;;;6318205;28;20056;-66
2024/01/13 09:11:00;;;;;;;9.73;5.95;;;;;;;;;;6311684;28;20174;-73
2024/01/13 09:14:00;;;;;;;10.13;5.60;;;;;;;;;;6314219;28;20050;-72
2024/01/13 09:17:01;;;;;;;10.57;5.75;;;;;;;;;;6310960;28;20059;-67
2024/01/13 09:20:02;;;;;;;10.40;5.55;;;;;;;;;;6305964;28;20167;-67
2024/01/13 09:23:03;;;;;;;11.25;5.90;;;;;;;;;;6310309;28;20445;-68
2024/01/13 09:26:04;;;;;;;10.50;6.40;;;;;;;;;;6314303;28;20149;-69
2024/01/13 09:29:07;;;;;;;10.77;5.50;;;;;;;;;;6304553;28;20048;-67
2024/01/13 09:32:07;;;;;;;10.52;5.85;;;;;;;;;;6306278;28;20102;-67
2024/01/13 09:35:08;;;;;;;9.00;5.32;;;;;;;;;;6305716;28;20048;-67
2024/01/13 09:38:09;;;;;;;12.82;6.20;;;;;;;;;;6303448;28;20048;-67
2024/01/13 09:41:10;;;;;;;10.30;5.32;;;;;;;;;;6300608;28;20385;-69
2024/01/13 09:44:21;;;;;;;12.52;5.93;;;;;;;;;;6309312;28;20079;-65
2024/01/13 09:47:22;;;;;;;12.13;6.60;;;;;;;;;;6301010;28;20052;-68
2024/01/13 09:50:23;;;;;;;12.18;6.45;;;;;;;;;;6311992;28;20090;-66
2024/01/13 09:53:28;;;;;;;12.50;7.05;;;;;;;;;;6304312;28;20036;-67
2024/01/13 09:56:33;;;;;;;10.98;6.25;;;;;;;;;;6302825;28;20044;-67
2024/01/13 09:59:34;;;;;;;13.85;7.18;;;;;;;;;;6298226;28;20501;-67
2024/01/13 10:02:34;;;;;;;13.68;7.07;;;;;;;;;;6291379;28;20056;-73
2024/01/13 10:05:35;;;;;;;13.75;6.28;;;;;;;;;;6292493;28;20060;-65
2024/01/13 10:08:37;;;;;;;13.60;6.55;;;;;;;;;;6293552;28;20480;-68
2024/01/13 10:11:38;;;;;;;11.70;6.10;;;;;;;;;;6290493;28;20091;-67
2024/01/13 10:14:41;;;;;;;14.27;6.63;;;;;;;;;;6292854;28;20052;-68
2024/01/13 10:17:43;;;;;;;11.15;6.60;;;;;;;;;;6292815;28;20049;-64
2024/01/13 10:20:43;;;;;;;34.78;17.70;;;;;;;;;;6291712;28;20044;-71
2024/01/13 10:23:44;;;;;;;10.55;5.93;;;;;;;;;;6292015;28;20068;-68
2024/01/13 10:26:45;;;;;;;11.85;6.25;;;;;;;;;;6292254;28;20483;-74
2024/01/13 10:29:48;;;;;;;14.07;6.80;;;;;;;;;;6292154;28;20135;-77
2024/01/13 10:32:49;;;;;;;11.20;6.03;;;;;;;;;;6290413;28;20526;-75
2024/01/13 10:35:50;;;;;;;11.98;6.55;;;;;;;;;;6292382;28;20040;-74
2024/01/13 10:38:51;;;;;;;12.48;6.18;;;;;;;;;;6292067;28;20055;-75
2024/01/13 10:41:54;;;;;;;14.85;7.18;;;;;;;;;;6289418;28;20048;-67
2024/01/13 10:44:58;;;;;;;12.60;6.80;;;;;;;;;;6292326;28;20431;-75
2024/01/13 10:48:04;;;;;;;12.57;6.43;;;;;;;;;;6292026;28;20181;-74
2024/01/13 10:51:10;;;;;;;14.40;6.82;;;;;;;;;;6290964;28;20048;-64
2024/01/13 10:54:13;;;;;;;13.02;7.35;;;;;;;;;;6276296;28;20051;-69
2024/01/13 10:57:15;;;;;;;12.50;6.72;;;;;;;;;;6291615;28;20785;-75
2024/01/13 11:00:16;;;;;;;13.40;7.28;;;;;;;;;;6291730;28;20056;-75
2024/01/13 11:03:18;;;;;;;31.27;15.93;;;;;;;;;;6289850;28;20044;-68
2024/01/13 11:06:21;;;;;;;12.15;7.18;;;;;;;;;;6291315;28;20125;-68
2024/01/13 11:09:23;;;;;;;20.90;12.52;;;;;;;;;;6290623;28;20593;-68
2024/01/13 11:12:40;;;;;;;21.30;11.75;;;;;;;;;;6288313;28;20135;-71
2024/01/13 11:16:08;;;;;;;17.08;9.32;;;;;;;;;;6290836;28;20053;-66
2024/01/13 11:19:10;;;;;;;15.60;8.57;;;;;;;;;;6290628;28;20560;-70
2024/01/13 11:22:31;;;;;;;26.25;14.95;;;;;;;;;;6290573;28;20057;-63
2024/01/13 11:25:34;;;;;;;25.98;12.50;;;;;;;;;;6289106;28;20045;-68
2024/01/13 11:29:01;;;;;;;28.33;14.00;;;;;;;;;;6290229;28;20098;-68
2024/01/13 11:32:02;;;;;;;19.95;10.07;;;;;;;;;;6289179;28;20423;-69
2024/01/13 11:35:03;;;;;;;22.13;11.23;;;;;;;;;;6290911;28;20048;-67
2024/01/13 11:38:07;;;;;;;18.77;10.40;;;;;;;;;;6289602;28;20048;-69
2024/01/13 11:41:08;;;;;;;19.58;9.98;;;;;;;;;;6290689;28;20444;-69
2024/01/13 11:44:10;;;;;;;21.13;10.98;;;;;;;;;;6291000;28;20048;-66
2024/01/13 11:47:12;;;;;;;41.28;22.15;;;;;;;;;;6289614;28;20044;-70
2024/01/13 11:50:35;;;;;;;47.17;21.85;;;;;;;;;;6289930;28;20052;-70
2024/01/13 11:53:41;;;;;;;29.60;16.23;;;;;;;;;;6289474;28;20519;-72
2024/01/13 11:56:44;;;;;;;22.63;11.73;;;;;;;;;;6290968;28;20532;-66
2024/01/13 11:59:46;;;;;;;20.02;10.55;;;;;;;;;;6287169;28;20040;-73
2024/01/13 12:02:47;;;;;;;19.48;10.63;;;;;;;;;;6290520;28;20053;-74
2024/01/13 12:05:47;;;;;;;26.77;12.48;;;;;;;;;;6286619;28;20502;-73
2024/01/13 12:08:53;;;;;;;19.38;10.23;;;;;;;;;;6288185;28;20098;-73
2024/01/13 12:11:58;;;;;;;21.63;11.30;;;;;;;;;;6278151;28;20131;-75
2024/01/13 12:15:03;;;;;;;21.58;10.30;;;;;;;;;;6287608;28;20392;-72
2024/01/13 12:18:04;;;;;;;19.85;10.15;;;;;;;;;;6288749;28;20056;-72
2024/01/13 12:21:04;;;;;;;21.80;12.68;;;;;;;;;;6291928;28;20048;-75
2024/01/13 12:24:05;;;;;;;41.85;21.02;;;;;;;;;;6295703;28;20055;-76
2024/01/13 12:27:06;;;;;;;31.00;17.17;;;;;;;;;;6294871;28;20052;-73
2024/01/13 12:30:07;;;;;;;18.13;9.20;;;;;;;;;;6293356;28;20147;-76
2024/01/13 12:33:09;;;;;;;42.63;20.05;;;;;;;;;;6294790;28;20083;-73
2024/01/13 12:36:11;;;;;;;23.27;12.32;;;;;;;;;;6294673;28;20045;-76
2024/01/13 12:39:12;;;;;;;18.43;9.10;;;;;;;;;;6294510;28;20484;-70
2024/01/13 12:42:13;;;;;;;16.40;8.75;;;;;;;;;;6294010;28;20049;-73
2024/01/13 12:45:15;;;;;;;15.10;8.80;;;;;;;;;;6295659;28;20541;-76
2024/01/13 12:48:18;;;;;;;14.80;8.43;;;;;;;;;;6298395;28;20052;-75
2024/01/13 12:51:20;;;;;;;13.73;7.55;;;;;;;;;;6293206;28;20040;-76
2024/01/13 12:54:21;;;;;;;15.02;7.55;;;;;;;;;;6295326;28;20050;-76
2024/01/13 12:57:22;;;;;;;12.98;7.25;;;;;;;;;;6294396;28;20068;-65
2024/01/13 13:00:28;;;;;;;11.93;6.70;;;;;;;;;;6293569;28;20052;-74
2024/01/13 13:03:29;;;;;;;12.77;6.55;;;;;;;;;;6282280;28;20048;-70
2024/01/13 13:06:30;;;;;;;17.58;9.23;;;;;;;;;;6295119;28;20044;-70
2024/01/13 13:09:31;;;;;;;18.02;7.78;;;;;;;;;;6294274;28;20082;-76
2024/01/13 13:12:33;;;;;;;15.40;9.18;;;;;;;;;;6292650;28;20076;-69
2024/01/13 13:15:34;;;;;;;11.60;7.03;;;;;;;;;;6294645;28;20059;-71
2024/01/13 13:18:36;;;;;;;10.73;5.95;;;;;;;;;;6291450;28;20044;-71
2024/01/13 13:21:37;;;;;;;12.73;7.82;;;;;;;;;;6277828;28;20053;-70
2024/01/13 13:24:38;;;;;;;11.48;6.88;;;;;;;;;;6278831;28;20044;-71
2024/01/13 13:27:39;;;;;;;12.70;6.88;;;;;;;;;;6275168;28;20131;-74
2024/01/13 13:30:40;;;;;;;10.30;5.65;;;;;;;;;;6266603;28;20569;-77
2024/01/13 13:33:41;;;;;;;10.45;5.60;;;;;;;;;;6268583;28;20060;-78
2024/01/13 13:36:42;;;;;;;11.30;5.80;;;;;;;;;;6269111;28;20071;-77
2024/01/13 13:39:42;;;;;;;10.65;5.50;;;;;;;;;;6270624;28;20049;-72
2024/01/13 13:42:43;;;;;;;11.10;6.00;;;;;;;;;;6268928;28;20052;-72
2024/01/13 13:45:45;;;;;;;11.10;5.72;;;;;;;;;;6270516;28;20064;-73
2024/01/13 13:48:46;;;;;;;;;;;;;;;;;;6273320;28;20045;-69
2024/01/13 13:51:51;;;;;;;10.45;6.22;;;;;;;;;;6268637;28;19931;-77
2024/01/13 13:54:52;;;;;;;11.10;6.13;;;;;;;;;;6270786;28;20169;-69
2024/01/13 13:57:52;;;;;;;13.07;6.65;;;;;;;;;;6273655;28;20048;-65
2024/01/13 14:00:53;;;;;;;10.98;6.80;;;;;;;;;;6268936;28;20048;-71
2024/01/13 14:03:54;;;;;;;12.00;6.28;;;;;;;;;;6276501;28;20075;-67
2024/01/13 14:06:55;;;;;;;16.83;8.55;;;;;;;;;;6275195;28;20059;-63
2024/01/13 14:09:56;;;;;;;17.17;10.70;;;;;;;;;;6270754;28;20685;-64
2024/01/13 14:12:57;;;;;;;18.90;11.88;;;;;;;;;;6274175;28;20059;-64
2024/01/13 14:16:00;;;;;;;16.92;9.65;;;;;;;;;;6270878;28;20078;-63
2024/01/13 14:19:03;;;;;;;15.15;8.40;;;;;;;;;;6270353;28;20053;-63
2024/01/13 14:22:04;;;;;;;12.10;6.93;;;;;;;;;;6271737;28;20049;-63
2024/01/13 14:25:08;;;;;;;11.23;6.60;;;;;;;;;;6273365;28;20056;-65
2024/01/13 14:28:09;;;;;;;12.15;7.05;;;;;;;;;;6278792;28;20090;-63
2024/01/13 14:31:11;;;;;;;14.30;7.60;;;;;;;;;;6282671;28;20040;-65
2024/01/13 14:34:12;;;;;;;11.48;6.90;;;;;;;;;;6275788;28;20500;-61
2024/01/13 14:37:14;;;;;;;14.65;7.63;;;;;;;;;;6268725;28;20059;-65
2024/01/13 14:40:15;;;;;;;;;;;;;;;;;;6269884;28;20176;-62
2024/01/13 14:43:16;;;;;;;14.82;7.40;;;;;;;;;;6271159;28;19998;-62
2024/01/13 14:46:18;;;;;;;11.77;7.38;;;;;;;;;;6269832;28;20243;-63
2024/01/13 14:49:19;;;;;;;13.43;7.38;;;;;;;;;;6266893;28;20044;-63
2024/01/13 14:52:20;;;;;;;14.30;8.10;;;;;;;;;;6263801;28;20593;-65
2024/01/13 14:55:21;;;;;;;17.80;10.75;;;;;;;;;;6266246;28;21307;-62
2024/01/13 14:58:21;;;;;;;16.77;9.35;;;;;;;;;;6264751;28;20049;-63
2024/01/13 15:01:23;;;;;;;14.65;8.65;;;;;;;;;;6270415;28;20151;-64
2024/01/13 15:04:25;;;;;;;16.10;8.85;;;;;;;;;;6263032;28;20103;-63
2024/01/13 15:07:26;;;;;;;16.33;9.37;;;;;;;;;;6271737;28;20065;-63
2024/01/13 15:10:26;;;;;;;17.10;10.20;;;;;;;;;;6266916;28;20484;-63
2024/01/13 15:13:27;;;;;;;15.15;8.18;;;;;;;;;;6265412;28;20048;-63
2024/01/13 15:16:28;;;;;;;16.33;9.15;;;;;;;;;;6262959;28;20584;-64
2024/01/13 15:19:29;;;;;;;20.60;10.63;;;;;;;;;;6265634;28;20139;-63
2024/01/13 15:22:30;;;;;;;21.92;11.65;;;;;;;;;;6263102;28;20049;-63
2024/01/13 15:25:30;;;;;;;21.65;11.73;;;;;;;;;;6268260;28;20060;-63
2024/01/13 15:28:32;;;;;;;14.55;8.10;;;;;;;;;;6269357;28;20761;-63
2024/01/13 15:31:33;;;;;;;13.73;8.00;;;;;;;;;;6265745;28;20053;-63
2024/01/13 15:34:34;;;;;;;15.95;9.80;;;;;;;;;;6267847;28;20040;-63
2024/01/13 15:37:35;;;;;;;14.57;8.82;;;;;;;;;;6266876;28;20044;-63
2024/01/13 15:40:36;;;;;;;29.88;14.50;;;;;;;;;;6261089;28;20426;-64
2024/01/13 15:43:37;;;;;;;13.95;8.40;;;;;;;;;;6266134;28;20048;-64
2024/01/13 15:46:38;;;;;;;12.70;8.77;;;;;;;;;;6267327;28;20137;-64
2024/01/13 15:49:42;;;;;;;14.85;10.75;;;;;;;;;;6267721;28;20302;-64
2024/01/13 15:52:44;;;;;;;13.40;7.97;;;;;;;;;;6261242;28;20102;-65
2024/01/13 15:55:45;;;;;;;10.40;6.97;;;;;;;;;;6265572;28;20049;-64
2024/01/13 15:58:45;;;;;;;11.82;7.47;;;;;;;;;;6263539;28;20643;-65
2024/01/13 16:01:46;;;;;;;10.10;6.28;;;;;;;;;;6261284;28;20045;-66
2024/01/13 16:04:48;;;;;;;17.13;9.70;;;;;;;;;;6268385;28;20045;-62
2024/01/13 16:07:49;;;;;;;16.95;9.68;;;;;;;;;;6264800;28;20053;-63
2024/01/13 16:10:52;;;;;;;13.75;7.97;;;;;;;;;;6266011;28;20052;-62
2024/01/13 16:13:57;;;;;;;11.40;6.60;;;;;;;;;;6260920;28;20059;-62
2024/01/13 16:16:58;;;;;;;13.05;7.80;;;;;;;;;;6266068;28;20965;-63
2024/01/13 16:19:59;;;;;;;15.60;8.38;;;;;;;;;;6262927;28;20052;-63
2024/01/13 16:23:00;;;;;;;10.88;6.03;;;;;;;;;;6262396;28;20136;-62
2024/01/13 16:26:01;;;;;;;10.50;5.80;;;;;;;;;;6269988;28;20060;-62
2024/01/13 16:29:03;;;;;;;18.30;10.68;;;;;;;;;;6262696;28;20122;-62
2024/01/13 16:32:04;;;;;;;8.52;5.40;;;;;;;;;;6259364;28;20105;-63
2024/01/13 16:35:05;;;;;;;10.88;6.20;;;;;;;;;;6264530;28;20059;-62
2024/01/13 16:38:05;;;;;;;12.70;7.03;;;;;;;;;;6267306;28;20053;-62
2024/01/13 16:41:06;;;;;;;12.18;7.22;;;;;;;;;;6263872;28;20504;-70
2024/01/13 16:44:07;;;;;;;15.55;10.35;;;;;;;;;;6266813;28;20076;-63
2024/01/13 16:47:07;;;;;;;14.68;8.80;;;;;;;;;;6262292;28;20057;-64
2024/01/13 16:50:11;;;;;;;15.45;9.05;;;;;;;;;;6263624;28;20064;-71
2024/01/13 16:53:13;;;;;;;17.52;11.20;;;;;;;;;;6264790;28;20044;-70
2024/01/13 16:56:14;;;;;;;11.40;7.75;;;;;;;;;;6268600;28;20056;-66
2024/01/13 16:59:14;;;;;;;9.63;6.40;;;;;;;;;;6268489;28;20059;-70
2024/01/13 17:02:15;;;;;;;11.35;6.25;;;;;;;;;;6266070;28;20064;-70
2024/01/13 17:05:19;;;;;;;8.93;5.40;;;;;;;;;;6269394;28;20056;-67
2024/01/13 17:08:20;;;;;;;9.85;5.97;;;;;;;;;;6266365;28;20060;-67
2024/01/13 17:11:22;;;;;;;9.40;5.85;;;;;;;;;;6269339;28;20500;-65
2024/01/13 17:14:23;;;;;;;9.05;5.65;;;;;;;;;;6269542;28;20096;-64
2024/01/13 17:17:23;;;;;;;10.10;5.20;;;;;;;;;;6266838;28;20484;-62
2024/01/13 17:20:24;;;;;;;9.07;5.32;;;;;;;;;;6270784;28;20053;-69
2024/01/13 17:23:25;;;;;;;13.27;8.63;;;;;;;;;;6271299;28;20060;-66
2024/01/13 17:26:26;;;;;;;11.23;6.82;;;;;;;;;;6272185;28;20076;-69
2024/01/13 17:29:26;;;;;;;10.55;6.57;;;;;;;;;;6266184;28;20053;-67
2024/01/13 17:32:38;;;;;;;8.38;6.10;;;;;;;;;;6270516;28;20566;-69
2024/01/13 17:35:40;;;;;;;12.98;9.27;;;;;;;;;;6266257;28;20049;-70
2024/01/13 17:38:41;;;;;;;12.10;8.38;;;;;;;;;;6264494;28;20056;-72
2024/01/13 17:41:41;;;;;;;10.73;7.03;;;;;;;;;;6265209;28;20049;-66
2024/01/13 17:44:42;;;;;;;9.48;5.63;;;;;;;;;;6265217;28;20049;-68
2024/01/13 17:47:43;;;;;;;8.98;5.95;;;;;;;;;;6271836;28;20587;-72
2024/01/13 17:50:44;;;;;;;10.48;6.10;;;;;;;;;;6267153;28;20053;-65